Portada
METAR-TAF:

METAR-TAF

Aeroports :

Batam, Indonèsia

latitud: 01-07-15N, longitud: 104-07-07E, altitud: 38 m

Observació

L'informe es va fer fa 39 minuts, a les 03:00 UTC
Vent 7 kt del Nord/Nord-Est
Temperatura 27°C
Humitat 79%
Pressió 1014 hPa
Visibilitat 10 km o més
Escasses núvols a una alçada de 1400 ft

METAR: WIDD 130300Z 02007KT 9999 FEW014 27/23 Q1014 NOSIG

Hora: 10:39 (03:39 UTC)

Pronòstic

L'informe es va fer fa 4 hores i 39 minuts, a les 23:00 UTC
Pronòstic vàlid del 13 a les 00 UTC al 13 a les 24 UTC
Vent 10 kt del Nord/Nord-Est
Visibilitat 10 km o més
Escasses núvols a una alçada de 1400 ft
Probabilitat 30% :
Temporalment
l' 13 a les 04 UTC al 13 a les 08 UTC
Visibilitat: 5000 m
Escasses núvols a una alçada de 1400 ft, Cumulonimbus.
Cel ennuvolat a una alçada de 1500 ft
tempesta, pluja

TAF: WIDD 122300Z 1300/1324 02010KT 9999 FEW014 PROB30 TEMPO 1304/1308 5000 -TSRA FEW014CB BKN015

Observacions i pronòstics meteorològics de més de 4000 aeroports (METAR i TAF).

Les estacions disponibles són els punts grocs i vermells al mapa.

Posi el ratolí al punt desitjat per veure el nom de l'estació.

Feu clic per veure les observacions i els pronòstics meteorològics.

Per canviar el mapa: feu clic els botons verds amb una creu de color negre per apropar; al botó verd amb un guió per allunyar la imatge; o en les fletxes verdes per a mapes adjacents.


METAR-TAF: